Time;durP1;ratioP1;P1;durP2;ratioP2;P2;SDS_P1;SDS_P2;PMS_P1;PMS_P2;Temp;Humidity;BMP_temperature;BMP_pressure;BME280_temperature;BME280_humidity;BME280_pressure;Samples;Min_cycle;Max_cycle;Signal;HPM_P1;HPM_P2
2022/05/10 00:01:28;;;;;;;;;;;12.30;70.20;;;;;;5066571;28;19916;-65
2022/05/10 00:03:54;;;;;;;;;;;12.30;70.90;;;;;;5068987;28;19916;-64
2022/05/10 00:06:19;;;;;;;;;;;12.30;70.90;;;;;;5066378;28;19923;-66
2022/05/10 00:08:45;;;;;;;;;;;12.30;70.00;;;;;;5063271;28;19920;-64
2022/05/10 00:11:10;;;;;;;;;;;12.30;70.00;;;;;;5059958;28;22471;-64
2022/05/10 00:13:36;;;;;;;;;;;12.40;70.30;;;;;;5062063;28;19923;-64
2022/05/10 00:16:03;;;;;;;;;;;12.40;68.90;;;;;;5069740;28;19924;-65
2022/05/10 00:18:29;;;;;;;;;;;12.50;68.40;;;;;;5060667;28;20019;-66
2022/05/10 00:20:55;;;;;;;;;;;12.50;69.90;;;;;;5061680;28;20411;-65
2022/05/10 00:23:20;;;;;;;;;;;12.60;69.40;;;;;;5066005;28;19967;-65
2022/05/10 00:25:45;;;;;;;;;;;12.60;68.50;;;;;;5066020;28;20367;-64
2022/05/10 00:28:11;;;;;;;;;;;12.70;68.20;;;;;;5063143;28;19924;-64
2022/05/10 00:30:37;;;;;;;;;;;12.90;67.70;;;;;;5065980;28;19934;-64
2022/05/10 00:33:02;;;;;;;;;;;12.90;67.20;;;;;;5048401;28;19921;-64
2022/05/10 00:35:30;;;;;;;;;;;12.90;67.70;;;;;;5068284;28;19951;-64
2022/05/10 00:37:57;;;;;;;;;;;12.90;67.50;;;;;;5065222;28;19923;-64
2022/05/10 00:40:24;;;;;;;;;;;12.80;67.20;;;;;;5066390;28;20493;-63
2022/05/10 00:42:56;;;;;;;;;;;12.80;67.70;;;;;;5063717;28;19973;-63
2022/05/10 00:45:32;;;;;;;;;;;12.80;67.40;;;;;;5064324;28;19963;-64
2022/05/10 00:48:10;;;;;;;;;;;12.80;67.80;;;;;;5063982;28;19924;-64
2022/05/10 00:51:02;;;;;;;;;;;12.70;67.40;;;;;;5052836;28;19920;-64
2022/05/10 00:53:35;;;;;;;;;;;12.70;67.70;;;;;;5059410;28;19920;-65
2022/05/10 00:56:04;;;;;;;;;;;12.70;68.10;;;;;;5057595;28;19935;-64
2022/05/10 00:58:42;;;;;;;;;;;12.70;68.30;;;;;;5059476;28;19931;-64
2022/05/10 01:01:10;;;;;;;;;;;12.60;68.80;;;;;;5063722;28;19916;-65
2022/05/10 01:03:41;;;;;;;;;;;12.60;69.00;;;;;;5063605;28;20416;-63
2022/05/10 01:06:07;;;;;;;;;;;12.70;68.80;;;;;;5067415;28;19916;-65
2022/05/10 01:08:51;;;;;;;;;;;12.60;69.10;;;;;;5062324;28;20007;-64
2022/05/10 01:11:27;;;;;;;;;;;12.60;69.90;;;;;;5066424;28;19924;-65
2022/05/10 01:13:59;;;;;;;;;;;12.60;70.20;;;;;;5069850;28;19962;-64
2022/05/10 01:16:24;;;;;;;;;;;12.60;70.30;;;;;;5065894;28;19959;-64
2022/05/10 01:18:51;;;;;;;;;;;12.60;71.20;;;;;;5066240;28;20625;-64
2022/05/10 01:21:19;;;;;;;;;;;12.60;70.10;;;;;;5072543;28;20683;-64
2022/05/10 01:23:45;;;;;;;;;;;12.70;70.00;;;;;;5068369;28;20340;-65
2022/05/10 01:26:10;;;;;;;;;;;12.80;71.30;;;;;;5066232;28;19963;-65
2022/05/10 01:28:39;;;;;;;;;;;13.00;70.50;;;;;;5067471;28;20322;-65
2022/05/10 01:31:08;;;;;;;;;;;13.10;69.20;;;;;;5064053;28;19974;-65
2022/05/10 01:33:40;;;;;;;;;;;13.10;69.10;;;;;;5068223;28;19923;-63
2022/05/10 01:36:06;;;;;;;;;;;13.10;69.10;;;;;;5068556;28;19973;-65
2022/05/10 01:38:45;;;;;;;;;;;13.20;69.90;;;;;;5062536;28;19924;-64
2022/05/10 01:41:29;;;;;;;;;;;13.30;68.60;;;;;;5067340;28;20363;-65
2022/05/10 01:44:13;;;;;;;;;;;13.30;69.50;;;;;;5064904;28;19955;-64
2022/05/10 01:46:38;;;;;;;;;;;13.40;69.50;;;;;;5066343;28;19982;-66
2022/05/10 01:49:18;;;;;;;;;;;13.30;68.30;;;;;;5063827;28;20310;-64
2022/05/10 01:52:03;;;;;;;;;;;13.40;69.30;;;;;;5069175;28;19916;-65
2022/05/10 01:54:41;;;;;;;;;;;13.40;69.00;;;;;;5064430;28;19924;-65
2022/05/10 01:57:11;;;;;;;;;;;13.40;69.20;;;;;;5064860;28;19920;-65
2022/05/10 01:59:37;;;;;;;;;;;13.40;68.90;;;;;;5065926;28;20786;-65
2022/05/10 02:02:03;;;;;;;;;;;13.40;69.30;;;;;;5069489;28;19924;-64
2022/05/10 02:04:33;;;;;;;;;;;13.50;68.90;;;;;;5066663;28;20003;-64
2022/05/10 02:07:10;;;;;;;;;;;13.40;68.70;;;;;;5065831;28;19932;-64
2022/05/10 02:09:39;;;;;;;;;;;13.40;68.80;;;;;;5063291;28;19923;-65
2022/05/10 02:12:12;;;;;;;;;;;13.50;69.30;;;;;;5069602;28;20585;-65
2022/05/10 02:14:42;;;;;;;;;;;13.50;69.10;;;;;;5067276;28;19991;-64
2022/05/10 02:17:15;;;;;;;;;;;13.60;68.80;;;;;;5066370;28;19928;-64
2022/05/10 02:19:48;;;;;;;;;;;13.60;68.80;;;;;;5068130;28;20015;-64
2022/05/10 02:22:16;;;;;;;;;;;13.60;68.90;;;;;;5064763;28;19950;-65
2022/05/10 02:24:48;;;;;;;;;;;13.70;68.30;;;;;;5063221;28;19925;-66
2022/05/10 02:27:20;;;;;;;;;;;13.70;68.70;;;;;;5065291;28;19964;-65
2022/05/10 02:29:47;;;;;;;;;;;13.70;68.30;;;;;;5064389;28;19920;-66
2022/05/10 02:35:01;;;;;;;;;;;13.80;67.90;;;;;;5069473;28;20287;-64
2022/05/10 02:37:27;;;;;;;;;;;13.80;68.00;;;;;;5046344;28;19955;-65
2022/05/10 02:39:52;;;;;;;;;;;13.80;68.10;;;;;;5064080;28;19964;-65
2022/05/10 02:42:18;;;;;;;;;;;13.80;68.10;;;;;;5052243;28;19927;-64
2022/05/10 02:44:44;;;;;;;;;;;13.80;68.10;;;;;;5066156;28;20580;-65
2022/05/10 02:47:10;;;;;;;;;;;13.90;68.20;;;;;;5065111;28;19960;-65
2022/05/10 02:49:36;;;;;;;;;;;13.80;68.70;;;;;;5066357;28;19943;-64
2022/05/10 02:52:02;;;;;;;;;;;13.90;68.30;;;;;;5062076;28;19929;-65
2022/05/10 02:54:28;;;;;;;;;;;13.80;68.50;;;;;;5059731;28;19927;-65
2022/05/10 02:56:54;;;;;;;;;;;13.80;68.70;;;;;;5064449;28;19924;-65
2022/05/10 02:59:22;;;;;;;;;;;13.80;68.20;;;;;;5064416;28;19920;-65
2022/05/10 03:01:53;;;;;;;;;;;13.80;68.80;;;;;;5065670;28;19920;-65
2022/05/10 03:04:19;;;;;;;;;;;13.80;68.50;;;;;;5067559;28;19924;-64
2022/05/10 03:06:46;;;;;;;;;;;13.80;69.00;;;;;;5065786;28;19922;-65
2022/05/10 03:09:12;;;;;;;;;;;13.80;68.70;;;;;;5058713;28;19924;-65
2022/05/10 03:11:38;;;;;;;;;;;13.80;68.70;;;;;;5059078;28;19916;-65
2022/05/10 03:14:04;;;;;;;;;;;13.80;69.10;;;;;;5065841;28;19917;-65
2022/05/10 03:16:29;;;;;;;;;;;13.80;69.40;;;;;;5064501;28;19920;-66
2022/05/10 03:18:55;;;;;;;;;;;13.70;68.50;;;;;;5061786;28;19978;-64
2022/05/10 03:21:21;;;;;;;;;;;13.70;69.20;;;;;;5064784;28;19916;-65
2022/05/10 03:23:47;;;;;;;;;;;13.70;69.90;;;;;;5060744;28;19924;-64
2022/05/10 03:26:13;;;;;;;;;;;13.70;69.00;;;;;;5064292;28;20340;-65
2022/05/10 03:28:39;;;;;;;;;;;13.70;69.60;;;;;;5067171;28;19970;-66
2022/05/10 03:31:05;;;;;;;;;;;13.70;69.80;;;;;;5065130;28;19920;-64
2022/05/10 03:33:31;;;;;;;;;;;13.80;69.80;;;;;;5066098;28;19923;-65
2022/05/10 03:35:56;;;;;;;;;;;13.70;69.20;;;;;;5066971;28;19924;-65
2022/05/10 03:38:21;;;;;;;;;;;13.70;69.80;;;;;;5065801;28;19969;-65
2022/05/10 03:40:47;;;;;;;;;;;13.70;69.70;;;;;;5064555;28;20303;-65
2022/05/10 03:43:12;;;;;;;;;;;13.60;70.00;;;;;;5062123;28;20029;-64
2022/05/10 03:45:38;;;;;;;;;;;13.70;70.00;;;;;;5065811;28;19916;-66
2022/05/10 03:48:04;;;;;;;;;;;13.60;69.40;;;;;;5064829;28;19917;-65
2022/05/10 03:50:30;;;;;;;;;;;13.60;69.80;;;;;;5067119;28;19916;-65
2022/05/10 03:52:55;;;;;;;;;;;13.60;70.60;;;;;;5064437;28;20282;-66
2022/05/10 03:55:23;;;;;;;;;;;13.60;69.80;;;;;;5067799;28;20044;-65
2022/05/10 03:57:48;;;;;;;;;;;13.60;70.60;;;;;;5061153;28;20024;-65
2022/05/10 04:00:21;;;;;;;;;;;13.60;70.70;;;;;;5066942;28;19967;-65
2022/05/10 04:02:47;;;;;;;;;;;13.50;70.50;;;;;;5064914;28;19921;-64
2022/05/10 04:05:13;;;;;;;;;;;13.50;70.50;;;;;;5068447;28;19923;-64
2022/05/10 04:07:38;;;;;;;;;;;13.50;71.00;;;;;;5060791;28;19948;-65
2022/05/10 04:10:05;;;;;;;;;;;13.50;71.50;;;;;;5062206;28;19920;-65
2022/05/10 04:12:31;;;;;;;;;;;13.50;71.00;;;;;;5061772;28;20492;-65
2022/05/10 04:14:57;;;;;;;;;;;13.50;70.80;;;;;;5064484;28;19917;-64
2022/05/10 04:17:23;;;;;;;;;;;13.50;70.90;;;;;;5067036;28;19916;-65
2022/05/10 04:19:48;;;;;;;;;;;13.50;70.80;;;;;;5062507;28;20367;-65
2022/05/10 04:22:14;;;;;;;;;;;13.50;71.40;;;;;;5067017;28;19923;-65
2022/05/10 04:24:40;;;;;;;;;;;13.50;72.00;;;;;;5062428;28;19924;-65
2022/05/10 04:27:05;;;;;;;;;;;13.50;72.20;;;;;;5065808;28;19917;-64
2022/05/10 04:29:31;;;;;;;;;;;13.50;72.50;;;;;;5066124;28;19969;-64
2022/05/10 04:31:56;;;;;;;;;;;13.40;72.50;;;;;;5064177;28;20411;-64
2022/05/10 04:34:22;;;;;;;;;;;13.40;72.30;;;;;;5064751;28;20054;-65
2022/05/10 04:36:47;;;;;;;;;;;13.40;72.20;;;;;;5061854;28;19921;-64
2022/05/10 04:39:13;;;;;;;;;;;13.40;72.60;;;;;;5066427;28;19920;-65
2022/05/10 04:41:46;;;;;;;;;;;13.40;72.20;;;;;;5067881;28;19930;-64
2022/05/10 04:44:11;;;;;;;;;;;13.40;72.10;;;;;;5061004;28;19924;-64
2022/05/10 04:46:38;;;;;;;;;;;13.50;72.40;;;;;;5068498;28;19923;-65
2022/05/10 04:49:04;;;;;;;;;;;13.50;72.60;;;;;;5070588;28;20034;-64
2022/05/10 04:51:30;;;;;;;;;;;13.50;72.60;;;;;;5069991;28;19917;-65
2022/05/10 04:53:56;;;;;;;;;;;13.50;72.20;;;;;;5067267;28;19994;-65
2022/05/10 04:56:22;;;;;;;;;;;13.60;72.20;;;;;;5067337;28;19964;-64
2022/05/10 04:58:47;;;;;;;;;;;13.60;71.70;;;;;;5060097;28;19927;-65
2022/05/10 05:01:17;;;;;;;;;;;13.70;71.80;;;;;;5067563;28;19916;-66
2022/05/10 05:03:46;;;;;;;;;;;13.70;71.80;;;;;;5069531;28;19995;-65
2022/05/10 05:06:12;;;;;;;;;;;13.80;71.90;;;;;;5068843;28;20010;-64
2022/05/10 05:08:38;;;;;;;;;;;13.80;71.90;;;;;;5065311;28;19916;-64
2022/05/10 05:11:03;;;;;;;;;;;13.80;72.00;;;;;;5070797;28;20338;-65
2022/05/10 05:13:29;;;;;;;;;;;13.90;72.00;;;;;;5065355;28;19917;-64
2022/05/10 05:15:54;;;;;;;;;;;13.90;72.10;;;;;;5068838;28;19939;-64
2022/05/10 05:18:21;;;;;;;;;;;13.90;71.80;;;;;;5068716;28;19974;-64
2022/05/10 05:20:47;;;;;;;;;;;13.90;72.00;;;;;;5061382;28;19979;-65
2022/05/10 05:23:12;;;;;;;;;;;14.00;71.30;;;;;;5070153;28;20299;-65
2022/05/10 05:25:39;;;;;;;;;;;14.00;71.00;;;;;;5063440;28;19943;-64
2022/05/10 05:28:05;;;;;;;;;;;14.10;70.90;;;;;;5061555;28;19931;-65
2022/05/10 05:30:31;;;;;;;;;;;14.10;70.60;;;;;;5070924;28;19920;-65
2022/05/10 05:32:56;;;;;;;;;;;14.20;70.80;;;;;;5065819;28;19931;-65
2022/05/10 05:35:22;;;;;;;;;;;14.30;71.00;;;;;;5067448;28;20261;-65
2022/05/10 05:37:47;;;;;;;;;;;14.30;70.30;;;;;;5066875;28;19989;-66
2022/05/10 05:40:14;;;;;;;;;;;14.40;69.80;;;;;;5047328;28;19916;-65
2022/05/10 05:42:40;;;;;;;;;;;14.50;70.50;;;;;;5065545;28;19921;-65
2022/05/10 05:45:07;;;;;;;;;;;14.50;70.00;;;;;;5068369;28;19938;-65
2022/05/10 05:47:32;;;;;;;;;;;14.60;70.40;;;;;;5067253;28;19963;-65
2022/05/10 05:49:58;;;;;;;;;;;14.60;68.90;;;;;;5063604;28;19956;-65
2022/05/10 05:52:24;;;;;;;;;;;14.70;68.50;;;;;;5070790;28;19917;-65
2022/05/10 05:54:49;;;;;;;;;;;14.80;68.30;;;;;;5055976;28;19970;-67
2022/05/10 05:57:15;;;;;;;;;;;14.90;68.20;;;;;;5064991;28;19955;-66
2022/05/10 05:59:41;;;;;;;;;;;15.00;67.50;;;;;;5064143;28;19941;-65
2022/05/10 06:02:11;;;;;;;;;;;15.10;67.90;;;;;;5059792;28;20440;-66
2022/05/10 06:04:37;;;;;;;;;;;15.10;67.30;;;;;;5064525;28;19951;-66
2022/05/10 06:07:02;;;;;;;;;;;15.20;66.80;;;;;;5063180;28;19956;-65
2022/05/10 06:09:28;;;;;;;;;;;15.30;66.50;;;;;;5058823;28;19920;-66
2022/05/10 06:11:53;;;;;;;;;;;15.30;67.50;;;;;;5068441;28;20333;-66
2022/05/10 06:14:19;;;;;;;;;;;15.40;67.40;;;;;;5054009;28;19917;-66
2022/05/10 06:16:44;;;;;;;;;;;15.40;67.00;;;;;;5061730;28;19978;-65
2022/05/10 06:19:10;;;;;;;;;;;15.50;66.90;;;;;;5063275;28;19924;-65
2022/05/10 06:21:36;;;;;;;;;;;15.60;66.70;;;;;;5063811;28;19923;-67
2022/05/10 06:24:01;;;;;;;;;;;15.60;66.10;;;;;;5060960;28;19926;-65
2022/05/10 06:26:27;;;;;;;;;;;15.80;65.70;;;;;;5051148;28;20530;-66
2022/05/10 06:28:52;;;;;;;;;;;15.90;66.20;;;;;;5057302;28;20092;-66
2022/05/10 06:31:18;;;;;;;;;;;16.10;65.20;;;;;;5055592;28;20402;-66
2022/05/10 06:33:44;;;;;;;;;;;16.30;64.70;;;;;;5070261;28;19920;-65
2022/05/10 06:36:09;;;;;;;;;;;16.40;63.90;;;;;;5064479;28;19920;-65
2022/05/10 06:38:36;;;;;;;;;;;16.60;63.70;;;;;;5064779;28;19935;-65
2022/05/10 06:41:04;;;;;;;;;;;16.80;63.00;;;;;;5054627;28;21631;-67
2022/05/10 06:43:38;;;;;;;;;;;16.90;62.80;;;;;;5066527;28;19917;-66
2022/05/10 06:46:18;;;;;;;;;;;17.10;61.30;;;;;;5070145;28;20391;-66
2022/05/10 06:48:45;;;;;;;;;;;17.40;61.10;;;;;;5071189;28;19916;-65
2022/05/10 06:51:11;;;;;;;;;;;17.70;59.50;;;;;;5066392;28;19920;-66
2022/05/10 06:53:37;;;;;;;;;;;18.00;58.90;;;;;;5071149;28;19923;-65
2022/05/10 06:56:03;;;;;;;;;;;18.10;59.30;;;;;;5064257;28;19925;-67
2022/05/10 06:58:29;;;;;;;;;;;18.20;58.60;;;;;;5066770;28;19916;-66
2022/05/10 07:00:54;;;;;;;;;;;18.20;58.20;;;;;;5066522;28;20532;-66
2022/05/10 07:03:26;;;;;;;;;;;18.30;59.10;;;;;;5069585;28;19924;-66
2022/05/10 07:05:51;;;;;;;;;;;18.30;58.80;;;;;;5070713;28;20007;-67
2022/05/10 07:08:17;;;;;;;;;;;18.40;58.90;;;;;;5067745;28;20023;-66
2022/05/10 07:10:43;;;;;;;;;;;18.40;57.70;;;;;;5062864;28;19920;-66
2022/05/10 07:13:09;;;;;;;;;;;18.50;57.70;;;;;;5056824;28;19924;-67
2022/05/10 07:15:35;;;;;;;;;;;18.70;58.30;;;;;;5066313;28;19924;-66
2022/05/10 07:18:01;;;;;;;;;;;18.80;56.20;;;;;;5067475;28;19986;-66
2022/05/10 07:20:26;;;;;;;;;;;18.90;56.00;;;;;;5069300;28;20501;-65
2022/05/10 07:22:52;;;;;;;;;;;19.20;55.30;;;;;;5068045;28;19923;-67
2022/05/10 07:25:19;;;;;;;;;;;19.30;53.90;;;;;;5068784;28;20334;-66
2022/05/10 07:27:44;;;;;;;;;;;19.60;54.80;;;;;;5067738;28;19920;-67
2022/05/10 07:30:11;;;;;;;;;;;19.90;53.60;;;;;;5068876;28;19927;-67
2022/05/10 07:32:36;;;;;;;;;;;20.30;52.80;;;;;;5066161;28;19917;-65
2022/05/10 07:35:03;;;;;;;;;;;20.40;50.60;;;;;;5056100;28;20295;-66
2022/05/10 07:37:29;;;;;;;;;;;20.90;52.40;;;;;;5066378;28;19916;-67
2022/05/10 07:39:55;;;;;;;;;;;21.00;49.20;;;;;;5068491;28;19917;-68
2022/05/10 07:42:20;;;;;;;;;;;21.10;50.40;;;;;;5069807;28;19974;-67
2022/05/10 07:44:49;;;;;;;;;;;21.30;50.60;;;;;;5065963;28;19916;-65
2022/05/10 07:47:14;;;;;;;;;;;21.40;48.30;;;;;;5069534;28;19932;-66
2022/05/10 07:49:40;;;;;;;;;;;21.50;49.70;;;;;;5070134;28;19917;-66
2022/05/10 07:52:05;;;;;;;;;;;21.50;49.40;;;;;;5069374;28;19952;-67
2022/05/10 07:54:31;;;;;;;;;;;21.40;47.50;;;;;;5071600;28;20330;-65
2022/05/10 07:56:56;;;;;;;;;;;21.60;48.90;;;;;;5067296;28;19920;-66
2022/05/10 07:59:23;;;;;;;;;;;21.60;49.90;;;;;;5066060;28;19943;-67
2022/05/10 08:01:48;;;;;;;;;;;21.80;48.80;;;;;;5068189;28;19920;-66
2022/05/10 08:04:14;;;;;;;;;;;22.30;48.90;;;;;;5066391;28;20392;-67
2022/05/10 08:06:39;;;;;;;;;;;22.50;45.70;;;;;;5069385;28;19916;-67
2022/05/10 08:09:05;;;;;;;;;;;22.90;47.60;;;;;;5068540;28;19920;-65
2022/05/10 08:11:30;;;;;;;;;;;22.90;45.30;;;;;;5069635;28;19920;-67
2022/05/10 08:13:56;;;;;;;;;;;23.30;46.90;;;;;;5068369;28;20003;-66
2022/05/10 08:16:21;;;;;;;;;;;23.20;45.40;;;;;;5067893;28;19928;-66
2022/05/10 08:18:49;;;;;;;;;;;23.20;44.50;;;;;;5073164;28;20334;-65
2022/05/10 08:21:16;;;;;;;;;;;23.40;44.20;;;;;;5043318;28;19917;-66
2022/05/10 08:23:42;;;;;;;;;;;23.30;44.10;;;;;;5073759;28;19924;-66
2022/05/10 08:26:08;;;;;;;;;;;23.50;45.70;;;;;;5071865;28;19917;-66
2022/05/10 08:28:35;;;;;;;;;;;23.70;44.40;;;;;;5069966;28;19969;-66
2022/05/10 08:31:04;;;;;;;;;;;23.70;44.10;;;;;;5057225;28;19927;-67
2022/05/10 08:33:31;;;;;;;;;;;24.00;43.60;;;;;;5070534;28;19916;-67
2022/05/10 08:35:57;;;;;;;;;;;24.20;42.80;;;;;;5073760;28;19924;-66
2022/05/10 08:38:24;;;;;;;;;;;24.30;42.30;;;;;;5073090;28;20309;-66
2022/05/10 08:41:01;;;;;;;;;;;24.30;42.40;;;;;;5073682;28;19917;-66
2022/05/10 08:43:28;;;;;;;;;;;24.00;42.20;;;;;;5073547;28;19916;-67
2022/05/10 08:45:55;;;;;;;;;;;24.10;43.40;;;;;;5073133;28;20360;-64
2022/05/10 08:48:21;;;;;;;;;;;23.90;42.70;;;;;;5073101;28;21121;-65
2022/05/10 08:50:48;;;;;;;;;;;23.80;43.40;;;;;;5071190;28;20275;-65
2022/05/10 08:53:14;;;;;;;;;;;23.50;43.40;;;;;;5071627;28;19923;-64
2022/05/10 08:55:44;;;;;;;;;;;23.40;42.60;;;;;;5074120;28;19974;-66
2022/05/10 08:58:12;;;;;;;;;;;22.90;43.10;;;;;;5069575;28;19916;-66
2022/05/10 09:00:44;;;;;;;;;;;22.90;44.20;;;;;;5074483;28;20011;-66
2022/05/10 09:03:15;;;;;;;;;;;22.90;45.10;;;;;;5074705;28;20344;-66
2022/05/10 09:05:42;;;;;;;;;;;22.80;44.90;;;;;;5070720;28;19916;-65
2022/05/10 09:08:23;;;;;;;;;;;22.70;44.90;;;;;;5074372;28;20398;-66
2022/05/10 09:10:51;;;;;;;;;;;22.70;45.30;;;;;;5072903;28;20279;-66
2022/05/10 09:13:17;;;;;;;;;;;22.40;45.30;;;;;;5071740;28;19960;-65
2022/05/10 09:15:45;;;;;;;;;;;22.50;45.40;;;;;;5073845;28;20276;-67
2022/05/10 09:18:21;;;;;;;;;;;22.60;46.20;;;;;;5069617;28;20118;-67
2022/05/10 09:20:56;;;;;;;;;;;22.80;46.40;;;;;;5073890;28;19916;-67
2022/05/10 09:23:28;;;;;;;;;;;22.90;45.40;;;;;;5072735;28;19916;-67
2022/05/10 09:25:57;;;;;;;;;;;23.00;45.90;;;;;;5071699;28;19916;-66
2022/05/10 09:28:27;;;;;;;;;;;23.00;45.80;;;;;;5070891;28;20386;-65
2022/05/10 09:36:49;;;;;;;;;;;22.70;46.30;;;;;;5073504;28;19920;-66
2022/05/10 09:39:19;;;;;;;;;;;22.60;46.80;;;;;;5071238;28;20411;-65
2022/05/10 09:41:47;;;;;;;;;;;22.60;47.00;;;;;;5072134;28;19921;-67
2022/05/10 09:44:13;;;;;;;;;;;22.60;47.60;;;;;;5063835;28;19920;-66
2022/05/10 09:46:38;;;;;;;;;;;22.50;47.70;;;;;;5051486;28;19917;-65
2022/05/10 09:49:04;;;;;;;;;;;22.40;47.70;;;;;;5072433;28;19923;-66
2022/05/10 09:51:36;;;;;;;;;;;22.30;48.00;;;;;;5069687;28;20252;-65
2022/05/10 09:54:09;;;;;;;;;;;22.40;48.40;;;;;;5071701;28;19963;-66
2022/05/10 09:56:37;;;;;;;;;;;22.40;47.70;;;;;;5072768;28;19921;-65
2022/05/10 09:59:05;;;;;;;;;;;22.50;48.20;;;;;;5070496;28;19934;-65
2022/05/10 10:01:38;;;;;;;;;;;22.70;48.20;;;;;;5071646;28;20036;-67
2022/05/10 10:04:21;;;;;;;;;;;23.00;47.70;;;;;;5061147;28;19916;-65
2022/05/10 10:07:03;;;;;;;;;;;23.20;47.20;;;;;;5072044;28;19916;-66
2022/05/10 10:09:37;;;;;;;;;;;23.40;46.30;;;;;;5071173;28;19916;-65
2022/05/10 10:12:03;;;;;;;;;;;23.20;46.10;;;;;;5071052;28;19920;-65
2022/05/10 10:14:33;;;;;;;;;;;23.30;45.30;;;;;;5065590;28;20398;-66
2022/05/10 10:17:02;;;;;;;;;;;23.60;46.80;;;;;;5053892;28;19924;-64
2022/05/10 10:19:30;;;;;;;;;;;23.60;45.90;;;;;;5070866;28;19923;-62
2022/05/10 10:22:05;;;;;;;;;;;23.50;45.50;;;;;;5071700;28;19916;-62
2022/05/10 10:24:33;;;;;;;;;;;23.90;45.50;;;;;;5068733;28;19927;-62
2022/05/10 10:27:08;;;;;;;;;;;24.10;46.10;;;;;;5068236;28;20264;-63
2022/05/10 10:29:43;;;;;;;;;;;24.00;44.80;;;;;;5067230;28;20993;-62
2022/05/10 10:32:14;;;;;;;;;;;24.20;45.70;;;;;;5069914;28;19939;-64
2022/05/10 10:34:48;;;;;;;;;;;24.50;45.10;;;;;;5071002;28;19923;-64
2022/05/10 10:37:20;;;;;;;;;;;24.60;44.50;;;;;;5066313;28;19931;-62
2022/05/10 10:39:50;;;;;;;;;;;24.70;43.10;;;;;;5069391;28;20371;-65
2022/05/10 10:42:36;;;;;;;;;;;24.70;43.20;;;;;;5066717;28;19923;-65
2022/05/10 10:45:03;;;;;;;;;;;24.80;43.20;;;;;;5064485;28;19916;-65
2022/05/10 10:47:33;;;;;;;;;;;24.80;43.00;;;;;;5048732;28;20725;-64
2022/05/10 10:50:11;;;;;;;;;;;24.90;43.10;;;;;;5069453;28;19916;-64
2022/05/10 10:52:37;;;;;;;;;;;25.30;42.50;;;;;;5069768;28;20342;-64
2022/05/10 10:55:04;;;;;;;;;;;25.30;41.50;;;;;;5066997;28;19936;-63
2022/05/10 10:57:45;;;;;;;;;;;25.20;42.80;;;;;;5058065;28;19924;-64
2022/05/10 11:00:24;;;;;;;;;;;25.00;42.50;;;;;;5057584;28;19925;-63
2022/05/10 11:02:53;;;;;;;;;;;24.90;42.90;;;;;;5061116;28;20446;-65
2022/05/10 11:05:18;;;;;;;;;;;24.90;42.70;;;;;;5059357;28;20003;-64
2022/05/10 11:07:44;;;;;;;;;;;24.80;42.10;;;;;;5054974;28;20798;-63
2022/05/10 11:10:25;;;;;;;;;;;24.80;42.50;;;;;;5067278;28;19928;-63
2022/05/10 11:13:11;;;;;;;;;;;24.90;42.80;;;;;;5069405;28;19931;-64
2022/05/10 11:15:44;;;;;;;;;;;25.20;42.70;;;;;;5068509;28;20334;-64
2022/05/10 11:18:10;;;;;;;;;;;25.10;42.60;;;;;;5062981;28;19925;-63
2022/05/10 11:20:38;;;;;;;;;;;24.90;42.80;;;;;;5059414;28;20348;-64
2022/05/10 11:23:06;;;;;;;;;;;24.70;43.10;;;;;;5063828;28;19920;-63
2022/05/10 11:25:41;;;;;;;;;;;24.70;42.90;;;;;;5069833;28;19916;-65
2022/05/10 11:28:06;;;;;;;;;;;24.50;44.20;;;;;;5066307;28;19939;-65
2022/05/10 11:30:44;;;;;;;;;;;24.50;44.60;;;;;;5069267;28;20400;-65
2022/05/10 11:33:15;;;;;;;;;;;24.30;45.10;;;;;;5067877;28;19916;-62
2022/05/10 11:35:57;;;;;;;;;;;24.00;44.70;;;;;;5070054;28;20372;-64
2022/05/10 11:38:34;;;;;;;;;;;23.90;45.20;;;;;;5070123;28;20015;-63
2022/05/10 11:41:19;;;;;;;;;;;23.90;45.40;;;;;;5070410;28;20371;-65
2022/05/10 11:44:00;;;;;;;;;;;23.90;45.60;;;;;;5049320;28;19921;-63
2022/05/10 11:46:26;;;;;;;;;;;23.70;46.40;;;;;;5068133;28;20004;-64
2022/05/10 11:48:57;;;;;;;;;;;23.60;47.00;;;;;;5070584;28;20003;-63
2022/05/10 11:51:38;;;;;;;;;;;23.60;46.70;;;;;;5069700;28;19916;-63
2022/05/10 11:54:18;;;;;;;;;;;23.70;46.10;;;;;;5069773;28;19999;-62
2022/05/10 11:56:45;;;;;;;;;;;24.00;46.20;;;;;;5067031;28;20002;-61
2022/05/10 11:59:32;;;;;;;;;;;24.40;45.70;;;;;;5067597;28;20488;-64
2022/05/10 12:01:58;;;;;;;;;;;24.50;45.10;;;;;;5067781;28;20263;-64
2022/05/10 12:04:34;;;;;;;;;;;25.00;44.40;;;;;;5066223;28;19966;-63
2022/05/10 12:07:18;;;;;;;;;;;25.10;43.40;;;;;;5070204;28;19999;-62
2022/05/10 12:09:52;;;;;;;;;;;25.40;42.70;;;;;;5070447;28;20007;-62
2022/05/10 12:12:38;;;;;;;;;;;25.70;41.90;;;;;;5068879;28;20024;-65
2022/05/10 12:23:48;;;;;;;;;;;26.20;39.50;;;;;;5069649;28;20328;-65
2022/05/10 12:26:32;;;;;;;;;;;26.60;38.90;;;;;;5065536;28;20038;-62
2022/05/10 12:28:57;;;;;;;;;;;26.80;39.40;;;;;;5067145;28;20360;-63
2022/05/10 12:31:35;;;;;;;;;;;26.60;38.70;;;;;;5067021;28;19928;-65
2022/05/10 12:34:00;;;;;;;;;;;26.30;38.60;;;;;;5050354;28;19916;-65
2022/05/10 12:36:27;;;;;;;;;;;26.30;39.30;;;;;;5050408;28;20393;-64
2022/05/10 12:38:54;;;;;;;;;;;26.10;39.80;;;;;;5057077;28;19916;-65
2022/05/10 12:41:40;;;;;;;;;;;25.80;40.50;;;;;;5068219;28;19920;-63
2022/05/10 12:44:13;;;;;;;;;;;25.60;40.60;;;;;;5067136;28;20283;-64
2022/05/10 12:47:06;;;;;;;;;;;25.30;41.00;;;;;;5069635;28;19916;-65
2022/05/10 12:49:55;;;;;;;;;;;25.50;41.00;;;;;;5065992;28;19928;-64
2022/05/10 12:52:39;;;;;;;;;;;26.20;39.90;;;;;;5069144;28;19961;-64
2022/05/10 12:55:07;;;;;;;;;;;27.60;38.60;;;;;;5071294;28;20011;-65
2022/05/10 12:57:39;;;;;;;;;;;28.80;38.70;;;;;;5066044;28;19924;-65
2022/05/10 13:00:12;;;;;;;;;;;28.20;36.80;;;;;;5070006;28;19970;-63
2022/05/10 13:02:39;;;;;;;;;;;28.00;36.50;;;;;;5069558;28;19916;-66
2022/05/10 13:05:13;;;;;;;;;;;28.00;37.50;;;;;;5071517;28;19967;-66
2022/05/10 13:07:39;;;;;;;;;;;27.70;38.20;;;;;;5072635;28;20345;-63
2022/05/10 13:10:08;;;;;;;;;;;27.80;37.40;;;;;;5073001;28;19916;-65
2022/05/10 13:12:37;;;;;;;;;;;27.10;37.10;;;;;;5072451;28;20112;-65
2022/05/10 13:15:11;;;;;;;;;;;26.60;37.70;;;;;;5071227;28;19920;-65
2022/05/10 13:17:37;;;;;;;;;;;26.20;38.70;;;;;;5071757;28;19924;-65
2022/05/10 13:20:08;;;;;;;;;;;25.70;39.90;;;;;;5073199;28;19973;-65
2022/05/10 13:22:34;;;;;;;;;;;25.20;40.60;;;;;;5071923;28;20753;-64
2022/05/10 13:25:04;;;;;;;;;;;24.90;41.10;;;;;;5072287;28;20292;-65
2022/05/10 13:27:31;;;;;;;;;;;24.80;41.60;;;;;;5073340;28;20255;-65
2022/05/10 13:30:03;;;;;;;;;;;24.60;41.50;;;;;;5072366;28;19920;-65
2022/05/10 13:32:42;;;;;;;;;;;24.80;42.00;;;;;;5073569;28;20006;-65
2022/05/10 13:35:10;;;;;;;;;;;24.70;41.90;;;;;;5072803;28;20567;-64
2022/05/10 13:37:37;;;;;;;;;;;24.70;42.20;;;;;;5070550;28;19927;-65
2022/05/10 13:40:12;;;;;;;;;;;24.70;42.50;;;;;;5073678;28;20263;-65
2022/05/10 13:42:42;;;;;;;;;;;24.70;42.10;;;;;;5070895;28;19920;-65
2022/05/10 13:45:08;;;;;;;;;;;25.30;41.50;;;;;;5072604;28;19939;-64
2022/05/10 13:47:34;;;;;;;;;;;25.20;41.10;;;;;;5070803;28;19924;-66
2022/05/10 13:50:00;;;;;;;;;;;25.10;40.60;;;;;;5071846;28;19916;-64
2022/05/10 13:52:28;;;;;;;;;;;24.70;40.70;;;;;;5069492;28;19932;-64
2022/05/10 13:54:55;;;;;;;;;;;25.00;41.10;;;;;;5057729;28;19916;-64
2022/05/10 13:57:22;;;;;;;;;;;25.30;41.30;;;;;;5054210;28;19954;-68
2022/05/10 13:59:47;;;;;;;;;;;25.40;41.10;;;;;;5064895;28;19928;-65
2022/05/10 14:02:14;;;;;;;;;;;25.50;40.50;;;;;;5064615;28;19916;-63
2022/05/10 14:04:45;;;;;;;;;;;25.60;40.30;;;;;;5073325;28;19916;-64
2022/05/10 14:07:16;;;;;;;;;;;25.10;39.90;;;;;;5068507;28;19923;-65
2022/05/10 14:09:43;;;;;;;;;;;25.10;40.10;;;;;;5067576;28;20007;-64
2022/05/10 14:12:27;;;;;;;;;;;25.30;40.20;;;;;;5072703;28;19942;-65
2022/05/10 14:14:56;;;;;;;;;;;25.30;39.90;;;;;;5068449;28;19920;-65
2022/05/10 14:17:21;;;;;;;;;;;24.90;39.40;;;;;;5069760;28;19935;-65
2022/05/10 14:19:49;;;;;;;;;;;24.90;39.80;;;;;;5071933;28;19920;-64
2022/05/10 14:22:20;;;;;;;;;;;24.90;39.60;;;;;;5069596;28;19920;-66
2022/05/10 14:24:46;;;;;;;;;;;24.80;39.70;;;;;;5071729;28;19924;-63
2022/05/10 14:27:18;;;;;;;;;;;24.70;39.20;;;;;;5067640;28;20356;-65
2022/05/10 14:29:46;;;;;;;;;;;24.50;38.70;;;;;;5066864;28;19928;-66
2022/05/10 14:32:14;;;;;;;;;;;24.00;38.60;;;;;;5069641;28;20252;-67
2022/05/10 14:34:46;;;;;;;;;;;23.90;39.50;;;;;;5070709;28;19920;-65
2022/05/10 14:37:22;;;;;;;;;;;23.70;40.00;;;;;;5072888;28;19920;-66
2022/05/10 14:39:48;;;;;;;;;;;23.70;41.00;;;;;;5068353;28;20295;-65
2022/05/10 14:42:30;;;;;;;;;;;23.60;40.80;;;;;;5070965;28;19965;-65
2022/05/10 14:45:10;;;;;;;;;;;23.40;40.80;;;;;;5035646;28;19917;-64